sensor_id;sensor_type;location;lat;lon;timestamp;pressure;altitude;pressure_sealevel;temperature;humidity
9525;BME280;15940;48.734;9.112;2022-11-15T00:01:18;96405.78;;;7.00;86.61
9525;BME280;15940;48.734;9.112;2022-11-15T00:03:45;96400.59;;;6.97;86.57
9525;BME280;15940;48.734;9.112;2022-11-15T00:06:12;96400.13;;;6.98;85.63
9525;BME280;15940;48.734;9.112;2022-11-15T00:08:40;96395.94;;;6.97;85.71
9525;BME280;15940;48.734;9.112;2022-11-15T00:11:11;96389.44;;;7.04;86.32
9525;BME280;15940;48.734;9.112;2022-11-15T00:13:40;96388.28;;;7.10;85.15
9525;BME280;15940;48.734;9.112;2022-11-15T00:16:10;96388.41;;;7.16;85.20
9525;BME280;15940;48.734;9.112;2022-11-15T00:18:38;96384.22;;;7.15;85.55
9525;BME280;15940;48.734;9.112;2022-11-15T00:21:07;96379.94;;;7.23;84.73
9525;BME280;15940;48.734;9.112;2022-11-15T00:23:36;96379.56;;;7.30;84.03
9525;BME280;15940;48.734;9.112;2022-11-15T00:26:04;96377.66;;;7.36;83.45
9525;BME280;15940;48.734;9.112;2022-11-15T00:28:34;96382.00;;;7.49;83.46
9525;BME280;15940;48.734;9.112;2022-11-15T00:31:10;96371.69;;;7.47;82.87
9525;BME280;15940;48.734;9.112;2022-11-15T00:33:38;96368.06;;;7.50;82.14
9525;BME280;15940;48.734;9.112;2022-11-15T00:36:09;96366.72;;;7.60;81.60
9525;BME280;15940;48.734;9.112;2022-11-15T00:38:39;96360.19;;;7.67;82.26
9525;BME280;15940;48.734;9.112;2022-11-15T00:41:07;96359.25;;;7.70;81.80
9525;BME280;15940;48.734;9.112;2022-11-15T00:43:34;96351.09;;;7.64;80.99
9525;BME280;15940;48.734;9.112;2022-11-15T00:46:01;96356.00;;;7.66;81.59
9525;BME280;15940;48.734;9.112;2022-11-15T00:48:30;96350.81;;;7.62;81.10
9525;BME280;15940;48.734;9.112;2022-11-15T00:50:58;96354.25;;;7.63;81.23
9525;BME280;15940;48.734;9.112;2022-11-15T00:53:25;96346.16;;;7.63;82.33
9525;BME280;15940;48.734;9.112;2022-11-15T00:55:52;96347.78;;;7.55;81.61
9525;BME280;15940;48.734;9.112;2022-11-15T00:58:19;96332.75;;;7.48;81.49
9525;BME280;15940;48.734;9.112;2022-11-15T01:00:46;96342.03;;;7.47;81.85
9525;BME280;15940;48.734;9.112;2022-11-15T01:03:13;96342.78;;;7.48;81.39
9525;BME280;15940;48.734;9.112;2022-11-15T01:05:42;96341.03;;;7.44;81.52
9525;BME280;15940;48.734;9.112;2022-11-15T01:08:13;96331.94;;;7.42;81.44
9525;BME280;15940;48.734;9.112;2022-11-15T01:10:41;96331.72;;;7.45;81.96
9525;BME280;15940;48.734;9.112;2022-11-15T01:13:11;96325.25;;;7.37;81.76
9525;BME280;15940;48.734;9.112;2022-11-15T01:15:41;96335.78;;;7.35;82.18
9525;BME280;15940;48.734;9.112;2022-11-15T01:18:08;96327.63;;;7.30;82.53
9525;BME280;15940;48.734;9.112;2022-11-15T01:20:41;96322.06;;;7.19;82.46
9525;BME280;15940;48.734;9.112;2022-11-15T01:23:09;96332.88;;;7.04;83.04
9525;BME280;15940;48.734;9.112;2022-11-15T01:25:36;96334.69;;;6.92;83.83
9525;BME280;15940;48.734;9.112;2022-11-15T01:28:03;96329.41;;;6.83;83.50
9525;BME280;15940;48.734;9.112;2022-11-15T01:30:30;96332.19;;;6.74;85.10
9525;BME280;15940;48.734;9.112;2022-11-15T01:32:57;96325.88;;;6.62;84.30
9525;BME280;15940;48.734;9.112;2022-11-15T01:35:24;96324.03;;;6.53;85.72
9525;BME280;15940;48.734;9.112;2022-11-15T01:37:53;96328.31;;;6.45;85.25
9525;BME280;15940;48.734;9.112;2022-11-15T01:40:20;96321.25;;;6.48;85.92
9525;BME280;15940;48.734;9.112;2022-11-15T01:42:47;96324.31;;;6.41;85.80
9525;BME280;15940;48.734;9.112;2022-11-15T01:45:15;96323.03;;;6.36;85.98
9525;BME280;15940;48.734;9.112;2022-11-15T01:47:45;96330.91;;;6.40;87.23
9525;BME280;15940;48.734;9.112;2022-11-15T01:50:22;96317.34;;;6.34;86.07
9525;BME280;15940;48.734;9.112;2022-11-15T01:52:51;96321.72;;;6.32;86.70
9525;BME280;15940;48.734;9.112;2022-11-15T01:55:23;96327.56;;;6.30;86.85
9525;BME280;15940;48.734;9.112;2022-11-15T01:58:02;96322.06;;;6.24;86.52
9525;BME280;15940;48.734;9.112;2022-11-15T02:00:33;96308.63;;;6.24;86.85
9525;BME280;15940;48.734;9.112;2022-11-15T02:03:00;96315.41;;;6.35;86.98
9525;BME280;15940;48.734;9.112;2022-11-15T02:05:30;96314.13;;;6.45;87.27
9525;BME280;15940;48.734;9.112;2022-11-15T02:07:59;96315.59;;;6.46;87.46
9525;BME280;15940;48.734;9.112;2022-11-15T02:10:29;96311.63;;;6.56;86.86
9525;BME280;15940;48.734;9.112;2022-11-15T02:12:59;96308.75;;;6.45;86.70
9525;BME280;15940;48.734;9.112;2022-11-15T02:15:40;96305.22;;;6.39;86.96
9525;BME280;15940;48.734;9.112;2022-11-15T02:18:19;96303.47;;;6.36;86.75
9525;BME280;15940;48.734;9.112;2022-11-15T02:21:12;96287.84;;;6.25;86.64
9525;BME280;15940;48.734;9.112;2022-11-15T02:30:30;96285.16;;;6.25;86.57
9525;BME280;15940;48.734;9.112;2022-11-15T02:33:20;96281.84;;;6.30;87.51
9525;BME280;15940;48.734;9.112;2022-11-15T02:35:58;96276.28;;;6.19;86.70
9525;BME280;15940;48.734;9.112;2022-11-15T02:38:35;96285.06;;;6.34;88.13
9525;BME280;15940;48.734;9.112;2022-11-15T02:41:13;96274.94;;;6.44;86.99
9525;BME280;15940;48.734;9.112;2022-11-15T02:43:47;96283.88;;;6.35;86.21
9525;BME280;15940;48.734;9.112;2022-11-15T02:46:35;96267.63;;;6.44;87.68
9525;BME280;15940;48.734;9.112;2022-11-15T02:49:22;96276.16;;;6.43;86.94
9525;BME280;15940;48.734;9.112;2022-11-15T02:51:53;96272.56;;;6.46;87.50
9525;BME280;15940;48.734;9.112;2022-11-15T02:54:24;96265.41;;;6.57;87.35
9525;BME280;15940;48.734;9.112;2022-11-15T02:56:53;96263.66;;;6.54;86.48
9525;BME280;15940;48.734;9.112;2022-11-15T03:00:04;96262.81;;;6.48;86.74
9525;BME280;15940;48.734;9.112;2022-11-15T03:03:08;96253.63;;;6.40;87.58
9525;BME280;15940;48.734;9.112;2022-11-15T03:05:50;96262.53;;;6.32;87.74
9525;BME280;15940;48.734;9.112;2022-11-15T03:08:27;96256.03;;;6.23;86.75
9525;BME280;15940;48.734;9.112;2022-11-15T03:11:07;96253.94;;;6.27;88.27
9525;BME280;15940;48.734;9.112;2022-11-15T03:13:42;96245.03;;;6.21;86.89
9525;BME280;15940;48.734;9.112;2022-11-15T03:16:20;96245.50;;;6.20;87.38
9525;BME280;15940;48.734;9.112;2022-11-15T03:18:59;96244.38;;;6.26;87.94
9525;BME280;15940;48.734;9.112;2022-11-15T03:21:30;96246.13;;;6.29;87.30
9525;BME280;15940;48.734;9.112;2022-11-15T03:24:03;96235.84;;;6.28;86.69
9525;BME280;15940;48.734;9.112;2022-11-15T03:26:32;96242.03;;;6.34;87.51
9525;BME280;15940;48.734;9.112;2022-11-15T03:29:06;96235.56;;;6.26;88.13
9525;BME280;15940;48.734;9.112;2022-11-15T03:31:39;96235.91;;;6.34;87.72
9525;BME280;15940;48.734;9.112;2022-11-15T03:34:24;96238.50;;;6.43;87.12
9525;BME280;15940;48.734;9.112;2022-11-15T03:36:52;96237.97;;;6.39;87.11
9525;BME280;15940;48.734;9.112;2022-11-15T03:39:21;96225.34;;;6.45;87.42
9525;BME280;15940;48.734;9.112;2022-11-15T03:42:00;96225.06;;;6.43;87.66
9525;BME280;15940;48.734;9.112;2022-11-15T03:44:40;96229.69;;;6.42;87.86
9525;BME280;15940;48.734;9.112;2022-11-15T03:47:12;96230.06;;;6.50;86.68
9525;BME280;15940;48.734;9.112;2022-11-15T03:49:47;96219.13;;;6.39;86.25
9525;BME280;15940;48.734;9.112;2022-11-15T03:52:22;96220.97;;;6.33;86.24
9525;BME280;15940;48.734;9.112;2022-11-15T03:54:55;96222.56;;;6.39;86.72
9525;BME280;15940;48.734;9.112;2022-11-15T03:57:23;96212.81;;;6.42;87.71
9525;BME280;15940;48.734;9.112;2022-11-15T03:59:50;96220.88;;;6.56;87.11
9525;BME280;15940;48.734;9.112;2022-11-15T04:02:17;96227.16;;;6.53;86.02
9525;BME280;15940;48.734;9.112;2022-11-15T04:04:48;96211.59;;;6.57;85.97
9525;BME280;15940;48.734;9.112;2022-11-15T04:07:15;96216.84;;;6.67;86.69
9525;BME280;15940;48.734;9.112;2022-11-15T04:09:42;96200.69;;;6.67;86.46
9525;BME280;15940;48.734;9.112;2022-11-15T04:12:26;96207.09;;;6.69;86.34
9525;BME280;15940;48.734;9.112;2022-11-15T04:15:03;96210.63;;;6.75;86.41
9525;BME280;15940;48.734;9.112;2022-11-15T04:17:36;96215.25;;;6.75;86.22
9525;BME280;15940;48.734;9.112;2022-11-15T04:20:10;96212.09;;;6.76;86.34
9525;BME280;15940;48.734;9.112;2022-11-15T04:22:59;96221.91;;;6.79;85.81
9525;BME280;15940;48.734;9.112;2022-11-15T04:25:44;96219.78;;;6.83;85.78
9525;BME280;15940;48.734;9.112;2022-11-15T04:28:12;96223.69;;;6.82;85.61
9525;BME280;15940;48.734;9.112;2022-11-15T04:30:41;96210.66;;;6.81;86.13
9525;BME280;15940;48.734;9.112;2022-11-15T04:33:08;96214.78;;;6.76;85.64
9525;BME280;15940;48.734;9.112;2022-11-15T04:35:36;96208.84;;;6.72;85.44
9525;BME280;15940;48.734;9.112;2022-11-15T04:38:07;96201.34;;;6.62;85.32
9525;BME280;15940;48.734;9.112;2022-11-15T04:40:34;96197.81;;;6.70;85.88
9525;BME280;15940;48.734;9.112;2022-11-15T04:43:07;96194.38;;;6.70;85.79
9525;BME280;15940;48.734;9.112;2022-11-15T04:45:34;96189.13;;;6.61;85.50
9525;BME280;15940;48.734;9.112;2022-11-15T04:48:01;96192.81;;;6.63;86.11
9525;BME280;15940;48.734;9.112;2022-11-15T04:50:31;96199.81;;;6.55;85.80
9525;BME280;15940;48.734;9.112;2022-11-15T04:53:00;96191.13;;;6.45;86.19
9525;BME280;15940;48.734;9.112;2022-11-15T04:55:27;96197.56;;;6.53;86.64
9525;BME280;15940;48.734;9.112;2022-11-15T04:58:05;96200.25;;;6.53;86.93
9525;BME280;15940;48.734;9.112;2022-11-15T05:00:32;96190.06;;;6.57;86.94
9525;BME280;15940;48.734;9.112;2022-11-15T05:03:00;96183.06;;;6.66;86.79
9525;BME280;15940;48.734;9.112;2022-11-15T05:05:49;96185.81;;;6.71;86.67
9525;BME280;15940;48.734;9.112;2022-11-15T05:08:21;96185.56;;;6.69;86.42
9525;BME280;15940;48.734;9.112;2022-11-15T05:10:49;96180.44;;;6.71;86.30
9525;BME280;15940;48.734;9.112;2022-11-15T05:13:16;96169.41;;;6.69;85.97
9525;BME280;15940;48.734;9.112;2022-11-15T05:15:44;96171.75;;;6.62;85.88
9525;BME280;15940;48.734;9.112;2022-11-15T05:18:11;96168.91;;;6.50;86.42
9525;BME280;15940;48.734;9.112;2022-11-15T05:20:38;96165.75;;;6.52;87.01
9525;BME280;15940;48.734;9.112;2022-11-15T05:23:06;96174.75;;;6.49;86.25
9525;BME280;15940;48.734;9.112;2022-11-15T05:25:36;96174.34;;;6.36;86.03
9525;BME280;15940;48.734;9.112;2022-11-15T05:28:03;96167.19;;;6.33;86.44
9525;BME280;15940;48.734;9.112;2022-11-15T05:30:30;96173.94;;;6.43;86.84
9525;BME280;15940;48.734;9.112;2022-11-15T05:32:59;96169.84;;;6.47;87.37
9525;BME280;15940;48.734;9.112;2022-11-15T05:35:31;96163.81;;;6.52;86.74
9525;BME280;15940;48.734;9.112;2022-11-15T05:38:01;96161.31;;;6.49;86.33
9525;BME280;15940;48.734;9.112;2022-11-15T05:40:29;96157.22;;;6.53;86.62
9525;BME280;15940;48.734;9.112;2022-11-15T05:43:02;96158.50;;;6.58;86.62
9525;BME280;15940;48.734;9.112;2022-11-15T05:45:31;96160.19;;;6.55;86.31
9525;BME280;15940;48.734;9.112;2022-11-15T05:48:05;96165.84;;;6.57;87.07
9525;BME280;15940;48.734;9.112;2022-11-15T05:50:42;96152.91;;;6.62;86.51
9525;BME280;15940;48.734;9.112;2022-11-15T05:53:15;96157.56;;;6.61;86.29
9525;BME280;15940;48.734;9.112;2022-11-15T05:55:46;96156.03;;;6.54;86.37
9525;BME280;15940;48.734;9.112;2022-11-15T05:58:22;96154.72;;;6.50;86.52
9525;BME280;15940;48.734;9.112;2022-11-15T06:00:51;96150.56;;;6.49;85.85
9525;BME280;15940;48.734;9.112;2022-11-15T06:03:19;96160.09;;;6.50;86.22
9525;BME280;15940;48.734;9.112;2022-11-15T06:05:45;96157.88;;;6.48;86.44
9525;BME280;15940;48.734;9.112;2022-11-15T06:08:12;96159.28;;;6.44;86.24
9525;BME280;15940;48.734;9.112;2022-11-15T06:10:39;96154.84;;;6.41;85.82
9525;BME280;15940;48.734;9.112;2022-11-15T06:13:06;96154.63;;;6.44;86.26
9525;BME280;15940;48.734;9.112;2022-11-15T06:15:37;96151.88;;;6.39;86.66
9525;BME280;15940;48.734;9.112;2022-11-15T06:18:04;96158.00;;;6.39;86.69
9525;BME280;15940;48.734;9.112;2022-11-15T06:20:31;96160.34;;;6.32;86.01
9525;BME280;15940;48.734;9.112;2022-11-15T06:23:02;96157.16;;;6.33;86.49
9525;BME280;15940;48.734;9.112;2022-11-15T06:25:32;96157.91;;;6.34;86.36
9525;BME280;15940;48.734;9.112;2022-11-15T06:28:00;96152.88;;;6.41;86.55
9525;BME280;15940;48.734;9.112;2022-11-15T06:30:28;96163.47;;;6.45;86.59
9525;BME280;15940;48.734;9.112;2022-11-15T06:33:05;96157.16;;;6.48;85.93
9525;BME280;15940;48.734;9.112;2022-11-15T06:35:35;96159.56;;;6.46;86.22
9525;BME280;15940;48.734;9.112;2022-11-15T06:38:06;96163.19;;;6.43;85.54
9525;BME280;15940;48.734;9.112;2022-11-15T06:40:36;96162.78;;;6.50;85.58
9525;BME280;15940;48.734;9.112;2022-11-15T06:43:04;96164.53;;;6.53;85.33
9525;BME280;15940;48.734;9.112;2022-11-15T06:45:33;96165.09;;;6.57;85.23
9525;BME280;15940;48.734;9.112;2022-11-15T06:48:04;96166.78;;;6.54;84.78
9525;BME280;15940;48.734;9.112;2022-11-15T06:50:31;96167.31;;;6.58;86.31
9525;BME280;15940;48.734;9.112;2022-11-15T06:53:02;96173.22;;;6.63;85.20
9525;BME280;15940;48.734;9.112;2022-11-15T06:55:29;96174.25;;;6.65;84.76
9525;BME280;15940;48.734;9.112;2022-11-15T06:57:56;96175.28;;;6.68;85.01
9525;BME280;15940;48.734;9.112;2022-11-15T07:00:24;96180.75;;;6.73;84.95
9525;BME280;15940;48.734;9.112;2022-11-15T07:02:52;96181.75;;;6.76;84.51
9525;BME280;15940;48.734;9.112;2022-11-15T07:05:20;96187.19;;;6.81;84.08
9525;BME280;15940;48.734;9.112;2022-11-15T07:07:57;96179.41;;;6.83;84.01
9525;BME280;15940;48.734;9.112;2022-11-15T07:10:30;96187.47;;;6.83;84.16
9525;BME280;15940;48.734;9.112;2022-11-15T07:12:59;96180.41;;;6.86;84.21
9525;BME280;15940;48.734;9.112;2022-11-15T07:15:26;96185.09;;;6.91;84.91
9525;BME280;15940;48.734;9.112;2022-11-15T07:17:53;96181.50;;;6.94;83.83
9525;BME280;15940;48.734;9.112;2022-11-15T07:20:22;96180.31;;;7.01;84.07
9525;BME280;15940;48.734;9.112;2022-11-15T07:22:48;96183.84;;;7.07;83.68
9525;BME280;15940;48.734;9.112;2022-11-15T07:25:16;96179.25;;;7.13;83.90
9525;BME280;15940;48.734;9.112;2022-11-15T07:27:43;96177.66;;;7.21;83.75
9525;BME280;15940;48.734;9.112;2022-11-15T07:32:39;96181.78;;;7.42;83.06
9525;BME280;15940;48.734;9.112;2022-11-15T07:35:06;96172.81;;;7.51;82.41
9525;BME280;15940;48.734;9.112;2022-11-15T07:37:35;96177.69;;;7.73;82.39
9525;BME280;15940;48.734;9.112;2022-11-15T07:40:05;96174.44;;;7.95;82.40
9525;BME280;15940;48.734;9.112;2022-11-15T07:42:33;96169.22;;;8.17;81.63
9525;BME280;15940;48.734;9.112;2022-11-15T07:45:18;96168.41;;;8.37;80.72
9525;BME280;15940;48.734;9.112;2022-11-15T07:47:46;96172.25;;;8.62;80.25
9525;BME280;15940;48.734;9.112;2022-11-15T07:50:16;96160.31;;;8.80;79.12
9525;BME280;15940;48.734;9.112;2022-11-15T07:52:46;96158.66;;;8.94;78.82
9525;BME280;15940;48.734;9.112;2022-11-15T07:55:13;96152.56;;;9.04;76.79
9525;BME280;15940;48.734;9.112;2022-11-15T07:57:41;96151.88;;;9.15;77.46
9525;BME280;15940;48.734;9.112;2022-11-15T08:00:10;96160.50;;;9.19;76.90
9525;BME280;15940;48.734;9.112;2022-11-15T08:02:37;96158.03;;;9.27;76.93
9525;BME280;15940;48.734;9.112;2022-11-15T08:05:05;96154.13;;;9.33;75.92
9525;BME280;15940;48.734;9.112;2022-11-15T08:07:32;96154.38;;;9.35;75.44
9525;BME280;15940;48.734;9.112;2022-11-15T08:10:01;96149.50;;;9.39;75.11
9525;BME280;15940;48.734;9.112;2022-11-15T08:12:29;96146.53;;;9.32;74.84
9525;BME280;15940;48.734;9.112;2022-11-15T08:14:56;96161.47;;;9.27;75.19
9525;BME280;15940;48.734;9.112;2022-11-15T08:17:24;96145.28;;;9.27;75.66
9525;BME280;15940;48.734;9.112;2022-11-15T08:19:51;96145.75;;;9.26;75.25
9525;BME280;15940;48.734;9.112;2022-11-15T08:22:19;96155.56;;;9.18;75.08
9525;BME280;15940;48.734;9.112;2022-11-15T08:24:46;96155.56;;;9.18;75.13
9525;BME280;15940;48.734;9.112;2022-11-15T08:27:14;96149.19;;;9.21;74.95
9525;BME280;15940;48.734;9.112;2022-11-15T08:29:42;96138.38;;;9.26;75.20
9525;BME280;15940;48.734;9.112;2022-11-15T08:32:09;96140.13;;;9.29;74.64
9525;BME280;15940;48.734;9.112;2022-11-15T08:34:37;96132.75;;;9.35;74.62
9525;BME280;15940;48.734;9.112;2022-11-15T08:37:09;96130.81;;;9.41;74.22
9525;BME280;15940;48.734;9.112;2022-11-15T08:39:36;96130.09;;;9.52;74.26
9525;BME280;15940;48.734;9.112;2022-11-15T08:42:05;96130.34;;;9.65;73.97
9525;BME280;15940;48.734;9.112;2022-11-15T08:44:39;96125.69;;;9.83;72.73
9525;BME280;15940;48.734;9.112;2022-11-15T08:47:11;96120.03;;;10.03;71.78
9525;BME280;15940;48.734;9.112;2022-11-15T08:49:40;96117.13;;;10.23;70.64
9525;BME280;15940;48.734;9.112;2022-11-15T08:52:07;96115.59;;;10.39;70.74
9525;BME280;15940;48.734;9.112;2022-11-15T08:54:37;96108.91;;;10.63;70.93
9525;BME280;15940;48.734;9.112;2022-11-15T08:57:06;96104.41;;;10.82;68.16
9525;BME280;15940;48.734;9.112;2022-11-15T08:59:35;96108.47;;;11.11;67.17
9525;BME280;15940;48.734;9.112;2022-11-15T09:02:04;96108.06;;;11.37;67.35
9525;BME280;15940;48.734;9.112;2022-11-15T09:04:31;96118.06;;;11.59;67.18
9525;BME280;15940;48.734;9.112;2022-11-15T09:06:59;96113.28;;;11.70;64.58
9525;BME280;15940;48.734;9.112;2022-11-15T09:09:26;96105.09;;;11.82;65.77
9525;BME280;15940;48.734;9.112;2022-11-15T09:11:53;96108.94;;;11.92;65.58
9525;BME280;15940;48.734;9.112;2022-11-15T09:14:20;96106.53;;;12.13;65.28
9525;BME280;15940;48.734;9.112;2022-11-15T09:16:47;96104.25;;;12.22;64.75
9525;BME280;15940;48.734;9.112;2022-11-15T09:19:17;96100.63;;;12.39;64.82
9525;BME280;15940;48.734;9.112;2022-11-15T09:21:44;96100.50;;;12.50;64.06
9525;BME280;15940;48.734;9.112;2022-11-15T09:24:11;96098.91;;;12.60;63.43
9525;BME280;15940;48.734;9.112;2022-11-15T09:26:38;96098.09;;;12.71;64.28
9525;BME280;15940;48.734;9.112;2022-11-15T09:29:07;96099.84;;;12.87;62.66
9525;BME280;15940;48.734;9.112;2022-11-15T09:31:34;96092.75;;;13.03;62.88
9525;BME280;15940;48.734;9.112;2022-11-15T09:34:03;96097.44;;;13.27;60.88
9525;BME280;15940;48.734;9.112;2022-11-15T09:36:31;96096.53;;;13.37;60.67
9525;BME280;15940;48.734;9.112;2022-11-15T09:38:58;96094.81;;;13.53;60.82
9525;BME280;15940;48.734;9.112;2022-11-15T09:42:02;96098.03;;;13.70;60.81
9525;BME280;15940;48.734;9.112;2022-11-15T09:44:54;96094.53;;;13.89;59.14
9525;BME280;15940;48.734;9.112;2022-11-15T09:50:34;96088.03;;;13.92;59.17
9525;BME280;15940;48.734;9.112;2022-11-15T09:53:19;96089.06;;;13.89;60.06
9525;BME280;15940;48.734;9.112;2022-11-15T09:55:58;96083.72;;;13.83;60.37
9525;BME280;15940;48.734;9.112;2022-11-15T09:58:38;96087.13;;;13.70;59.86
9525;BME280;15940;48.734;9.112;2022-11-15T10:01:12;96079.22;;;13.54;61.00
9525;BME280;15940;48.734;9.112;2022-11-15T10:03:46;96083.66;;;13.38;61.90
9525;BME280;15940;48.734;9.112;2022-11-15T10:06:23;96068.06;;;13.38;62.11
9525;BME280;15940;48.734;9.112;2022-11-15T10:08:58;96073.06;;;13.34;62.19
9525;BME280;15940;48.734;9.112;2022-11-15T10:11:32;96075.06;;;13.34;62.03
9525;BME280;15940;48.734;9.112;2022-11-15T10:14:10;96073.00;;;13.21;62.69
9525;BME280;15940;48.734;9.112;2022-11-15T10:20:16;96065.38;;;13.20;62.63
9525;BME280;15940;48.734;9.112;2022-11-15T10:22:48;96059.75;;;13.12;61.18
9525;BME280;15940;48.734;9.112;2022-11-15T10:25:25;96060.34;;;13.05;62.50
9525;BME280;15940;48.734;9.112;2022-11-15T10:27:56;96052.28;;;12.99;62.50
9525;BME280;15940;48.734;9.112;2022-11-15T10:30:33;96043.38;;;12.99;63.18
9525;BME280;15940;48.734;9.112;2022-11-15T10:33:26;96046.69;;;13.10;63.15
9525;BME280;15940;48.734;9.112;2022-11-15T10:36:23;96045.66;;;13.13;63.46
9525;BME280;15940;48.734;9.112;2022-11-15T10:39:17;96043.88;;;13.16;63.06
9525;BME280;15940;48.734;9.112;2022-11-15T10:41:49;96034.22;;;13.21;63.07
9525;BME280;15940;48.734;9.112;2022-11-15T10:44:26;96033.16;;;13.24;62.92
9525;BME280;15940;48.734;9.112;2022-11-15T10:47:22;96029.72;;;13.23;62.50
9525;BME280;15940;48.734;9.112;2022-11-15T10:50:27;96023.34;;;13.21;62.71
9525;BME280;15940;48.734;9.112;2022-11-15T10:52:54;96019.63;;;13.18;63.10
9525;BME280;15940;48.734;9.112;2022-11-15T10:55:27;96015.69;;;13.19;63.40
9525;BME280;15940;48.734;9.112;2022-11-15T10:58:04;96023.03;;;13.24;63.90
9525;BME280;15940;48.734;9.112;2022-11-15T11:00:36;96019.56;;;13.24;64.28
9525;BME280;15940;48.734;9.112;2022-11-15T11:03:23;96017.38;;;13.22;64.50
9525;BME280;15940;48.734;9.112;2022-11-15T11:06:08;96014.69;;;13.16;65.10
9525;BME280;15940;48.734;9.112;2022-11-15T11:08:36;96008.16;;;13.06;65.00
9525;BME280;15940;48.734;9.112;2022-11-15T11:11:05;96014.06;;;13.10;65.41
9525;BME280;15940;48.734;9.112;2022-11-15T11:13:37;96011.03;;;13.14;64.50
9525;BME280;15940;48.734;9.112;2022-11-15T11:16:41;96009.25;;;13.16;65.33
9525;BME280;15940;48.734;9.112;2022-11-15T11:22:21;96007.22;;;13.23;65.13
9525;BME280;15940;48.734;9.112;2022-11-15T11:25:04;96004.84;;;13.32;65.57
9525;BME280;15940;48.734;9.112;2022-11-15T11:27:44;96001.22;;;13.43;64.54
9525;BME280;15940;48.734;9.112;2022-11-15T11:30:21;96007.31;;;13.49;65.06
9525;BME280;15940;48.734;9.112;2022-11-15T11:33:09;96003.28;;;13.56;64.66
9525;BME280;15940;48.734;9.112;2022-11-15T11:35:53;95991.75;;;13.63;64.07
9525;BME280;15940;48.734;9.112;2022-11-15T11:39:14;95987.03;;;13.63;64.03
9525;BME280;15940;48.734;9.112;2022-11-15T11:41:56;95974.94;;;13.78;64.66
9525;BME280;15940;48.734;9.112;2022-11-15T11:44:34;95966.97;;;13.80;63.82
9525;BME280;15940;48.734;9.112;2022-11-15T11:47:11;95962.59;;;13.77;63.48
9525;BME280;15940;48.734;9.112;2022-11-15T11:49:45;95963.72;;;13.81;63.22
9525;BME280;15940;48.734;9.112;2022-11-15T11:52:23;95958.00;;;13.85;64.26
9525;BME280;15940;48.734;9.112;2022-11-15T11:55:13;95951.50;;;13.88;63.25
9525;BME280;15940;48.734;9.112;2022-11-15T11:57:51;95959.34;;;14.05;64.60
9525;BME280;15940;48.734;9.112;2022-11-15T12:00:23;95958.72;;;14.12;62.89
9525;BME280;15940;48.734;9.112;2022-11-15T12:03:08;95957.25;;;14.11;62.69
9525;BME280;15940;48.734;9.112;2022-11-15T12:05:41;95947.53;;;14.15;63.04
9525;BME280;15940;48.734;9.112;2022-11-15T12:08:31;95943.19;;;14.20;62.66
9525;BME280;15940;48.734;9.112;2022-11-15T12:11:11;95945.19;;;14.19;63.56
9525;BME280;15940;48.734;9.112;2022-11-15T12:13:43;95937.75;;;14.20;63.09
9525;BME280;15940;48.734;9.112;2022-11-15T12:16:17;95939.25;;;14.08;62.58
9525;BME280;15940;48.734;9.112;2022-11-15T12:18:53;95936.94;;;13.98;63.20
9525;BME280;15940;48.734;9.112;2022-11-15T12:21:34;95935.56;;;13.92;63.31
9525;BME280;15940;48.734;9.112;2022-11-15T12:24:08;95931.19;;;13.89;63.09
9525;BME280;15940;48.734;9.112;2022-11-15T12:26:42;95932.22;;;13.86;63.45
9525;BME280;15940;48.734;9.112;2022-11-15T12:29:20;95927.19;;;13.77;64.49
9525;BME280;15940;48.734;9.112;2022-11-15T12:31:53;95926.56;;;13.70;65.22
9525;BME280;15940;48.734;9.112;2022-11-15T12:34:44;95926.25;;;13.61;65.12
9525;BME280;15940;48.734;9.112;2022-11-15T12:37:47;95920.16;;;13.55;65.17
9525;BME280;15940;48.734;9.112;2022-11-15T12:40:37;95925.38;;;13.53;65.45
9525;BME280;15940;48.734;9.112;2022-11-15T12:43:41;95926.03;;;13.46;65.96
9525;BME280;15940;48.734;9.112;2022-11-15T12:47:04;95925.16;;;13.37;65.19
9525;BME280;15940;48.734;9.112;2022-11-15T12:49:47;95924.53;;;13.31;65.97
9525;BME280;15940;48.734;9.112;2022-11-15T12:52:15;95923.78;;;13.31;66.15
9525;BME280;15940;48.734;9.112;2022-11-15T12:55:08;95924.09;;;13.27;66.51
9525;BME280;15940;48.734;9.112;2022-11-15T12:57:52;95916.53;;;13.20;66.26
9525;BME280;15940;48.734;9.112;2022-11-15T13:00:43;95908.88;;;13.19;66.40
9525;BME280;15940;48.734;9.112;2022-11-15T13:03:33;95908.44;;;13.14;66.06
9525;BME280;15940;48.734;9.112;2022-11-15T13:06:40;95907.72;;;13.14;66.93
9525;BME280;15940;48.734;9.112;2022-11-15T13:09:53;95898.09;;;13.13;66.67
9525;BME280;15940;48.734;9.112;2022-11-15T13:12:54;95901.31;;;13.11;67.03
9525;BME280;15940;48.734;9.112;2022-11-15T13:16:02;95895.38;;;13.13;67.22
9525;BME280;15940;48.734;9.112;2022-11-15T13:18:40;95889.63;;;13.16;67.83
9525;BME280;15940;48.734;9.112;2022-11-15T13:21:24;95878.53;;;13.14;68.29
9525;BME280;15940;48.734;9.112;2022-11-15T13:24:37;95880.09;;;13.10;68.36
9525;BME280;15940;48.734;9.112;2022-11-15T13:27:13;95878.41;;;13.07;68.31
9525;BME280;15940;48.734;9.112;2022-11-15T13:29:49;95868.69;;;13.11;68.07
9525;BME280;15940;48.734;9.112;2022-11-15T13:32:20;95869.63;;;13.14;68.31
9525;BME280;15940;48.734;9.112;2022-11-15T13:34:51;95864.06;;;13.06;68.18
9525;BME280;15940;48.734;9.112;2022-11-15T13:37:31;95866.91;;;13.01;68.60
9525;BME280;15940;48.734;9.112;2022-11-15T13:40:24;95861.25;;;12.99;68.50
9525;BME280;15940;48.734;9.112;2022-11-15T13:42:55;95858.09;;;12.95;68.57
9525;BME280;15940;48.734;9.112;2022-11-15T13:45:27;95849.53;;;12.91;68.68
9525;BME280;15940;48.734;9.112;2022-11-15T13:47:56;95846.47;;;12.81;68.10
9525;BME280;15940;48.734;9.112;2022-11-15T13:50:29;95839.13;;;12.76;68.57
9525;BME280;15940;48.734;9.112;2022-11-15T13:53:03;95841.22;;;12.70;69.77
9525;BME280;15940;48.734;9.112;2022-11-15T13:55:33;95834.38;;;12.63;70.44
9525;BME280;15940;48.734;9.112;2022-11-15T13:58:03;95825.56;;;12.57;70.87
9525;BME280;15940;48.734;9.112;2022-11-15T14:00:38;95823.91;;;12.54;71.70
9525;BME280;15940;48.734;9.112;2022-11-15T14:03:19;95822.72;;;12.49;72.30
9525;BME280;15940;48.734;9.112;2022-11-15T14:06:07;95823.84;;;12.41;73.28
9525;BME280;15940;48.734;9.112;2022-11-15T14:08:58;95816.50;;;12.36;74.41
9525;BME280;15940;48.734;9.112;2022-11-15T14:11:29;95817.31;;;12.30;74.80
9525;BME280;15940;48.734;9.112;2022-11-15T14:14:22;95819.19;;;12.22;76.23